PHTO/ITO METAR and TAF weather

Enter ICAO airport designator
Station Type Date Time Source
PHTO METAR 2021/04/13 22:53 UTC NOAA

PHTO 132253Z 03009KT 10SM FEW040 SCT050 27/17 A3000 RMK AO2 SLP158 T02720167


Station Type Date Time Source
PHTO Decoded METAR 2021/04/13 22:53 UTC NOAA

HILO INTERNATIONAL AIRPORT, HI, United States (PHTO) 19-43N 155-03W 12M
Apr 13, 2021 - 06:53 PM EDT / 2021.04.13 2253 UTC
Wind: from the NNE (030 degrees) at 10 MPH (9 KT):0
Visibility: 10 mile(s):0
Sky conditions: partly cloudy
Temperature: 81.0 F (27.2 C)
Dew Point: 62.1 F (16.7 C)
Relative Humidity: 52%
Pressure (altimeter): 30 in. Hg (1015 hPa)
ob: PHTO 132253Z 03009KT 10SM FEW040 SCT050 27/17 A3000 RMK AO2 SLP158 T02720167
cycle: 23

Station Type Date Time Source
PHTO TAF 2021/04/13 18:45 UTC NOAA

TAF PHTO 131743Z 1318/1418 23006KT P6SM VCSH SCT025 BKN045
FM132000 02011KT P6SM VCSH SCT025 BKN045
FM140600 28007KT P6SM VCSH FEW025 SCT045

Example: see airport list